Time;durP1;ratioP1;P1;durP2;ratioP2;P2;SDS_P1;SDS_P2;PMS_P1;PMS_P2;Temp;Humidity;BMP_temperature;BMP_pressure;BME280_temperature;BME280_humidity;BME280_pressure;Samples;Min_cycle;Max_cycle;Signal;HPM_P1;HPM_P2
2022/10/21 00:01:07;;;;;;;6.73;5.60;;;11.50;99.90;;;-141.84;67.04;18854.69;5090711;28;20738;-65
2022/10/21 00:03:36;;;;;;;6.40;5.80;;;11.60;99.90;;;-141.84;66.51;18901.41;5090631;28;20231;-64
2022/10/21 00:06:05;;;;;;;7.77;5.90;;;11.60;99.90;;;-141.84;66.42;18899.38;5090151;28;20219;-65
2022/10/21 00:08:33;;;;;;;8.77;6.23;;;11.60;99.90;;;-141.84;66.22;18931.91;5090696;28;20200;-66
2022/10/21 00:11:06;;;;;;;6.97;5.50;;;11.70;99.90;;;-141.84;65.37;19015.19;5091048;28;20284;-65
2022/10/21 00:13:38;;;;;;;7.73;6.07;;;11.80;99.90;;;-141.84;65.60;19017.25;5090551;28;20247;-65
2022/10/21 00:16:10;;;;;;;5.50;5.00;;;11.80;99.90;;;-141.84;66.51;18929.88;5090223;28;20238;-65
2022/10/21 00:18:40;;;;;;;8.53;6.60;;;11.70;99.90;;;-141.84;66.82;18929.88;5090590;28;20239;-64
2022/10/21 00:21:12;;;;;;;6.03;5.43;;;11.70;99.90;;;-141.84;67.03;18907.50;5089899;28;20663;-65
2022/10/21 00:23:41;;;;;;;6.83;5.57;;;11.70;99.90;;;-141.84;66.66;18913.59;5090246;28;20271;-64
2022/10/21 00:26:12;;;;;;;6.67;5.97;;;11.70;99.90;;;-141.84;66.97;18919.69;5090800;28;20261;-65
2022/10/21 00:28:41;;;;;;;6.47;5.83;;;11.70;99.90;;;-141.84;66.82;18897.34;5090468;28;20509;-64
2022/10/21 00:31:11;;;;;;;6.60;5.97;;;11.70;99.90;;;-141.84;66.66;18895.31;5090573;28;20235;-65
2022/10/21 00:33:40;;;;;;;7.37;6.17;;;11.70;99.90;;;-141.84;66.45;18901.41;5090285;28;20224;-64
2022/10/21 00:36:13;;;;;;;7.60;5.67;;;11.60;99.90;;;-141.84;66.99;18883.13;5090080;28;20228;-65
2022/10/21 00:38:43;;;;;;;7.87;5.87;;;11.60;99.90;;;-141.84;66.89;18883.13;5089784;28;20268;-64
2022/10/21 00:41:16;;;;;;;7.93;6.30;;;11.60;99.90;;;-141.84;66.45;18921.75;5090702;28;20199;-65
2022/10/21 00:44:01;;;;;;;6.20;5.60;;;11.60;99.90;;;-141.84;66.47;18927.84;5093390;28;20219;-64
2022/10/21 00:46:38;;;;;;;6.37;5.73;;;11.70;99.90;;;-141.84;66.55;18919.69;5110062;28;20280;-64
2022/10/21 00:49:16;;;;;;;7.43;6.20;;;11.70;99.90;;;-141.84;65.86;18940.03;5110264;28;20609;-65
2022/10/21 00:51:49;;;;;;;7.60;5.77;;;11.70;99.90;;;-141.84;66.36;18905.47;5110508;28;20847;-65
2022/10/21 00:54:20;;;;;;;6.00;5.47;;;11.70;99.90;;;-141.84;66.44;18921.75;5110579;28;20226;-65
2022/10/21 00:56:54;;;;;;;6.40;5.70;;;11.70;99.90;;;-141.84;66.72;18913.59;5110793;28;20226;-65
2022/10/21 00:59:26;;;;;;;6.57;5.93;;;11.70;99.90;;;-141.84;66.77;18923.78;5110341;28;20656;-65
2022/10/21 01:01:55;;;;;;;6.73;6.00;;;11.70;99.90;;;-141.84;66.51;18942.06;5111107;28;20199;-65
2022/10/21 01:04:23;;;;;;;7.10;5.97;;;11.70;99.90;;;-141.84;65.86;18944.09;5110000;28;20650;-65
2022/10/21 01:06:52;;;;;;;6.00;5.37;;;11.70;99.90;;;-141.84;65.83;18942.06;5110431;28;20234;-66
2022/10/21 01:09:21;;;;;;;6.43;5.83;;;11.70;99.90;;;-141.84;66.48;18933.94;5110377;28;20251;-65
2022/10/21 01:11:51;;;;;;;7.57;6.07;;;11.70;99.90;;;-141.84;66.47;18915.63;5110762;28;20580;-65
2022/10/21 01:14:45;;;;;;;7.23;6.53;;;11.70;99.90;;;-141.84;66.62;18917.66;5110892;28;20232;-64
2022/10/21 01:17:30;;;;;;;6.50;5.90;;;11.70;99.90;;;-141.84;67.25;18862.81;5110933;28;20282;-64
2022/10/21 01:20:46;;;;;;;6.87;6.17;;;11.70;99.90;;;-141.84;67.31;18899.38;5110037;28;20270;-67
2022/10/21 01:23:57;;;;;;;6.77;6.00;;;11.60;99.90;;;-141.84;67.33;18836.41;5110802;28;20215;-68
2022/10/21 01:27:09;;;;;;;8.10;6.00;;;11.60;99.90;;;-141.84;67.57;18856.72;5110949;28;20283;-64
2022/10/21 01:30:11;;;;;;;6.80;6.20;;;11.60;99.90;;;-141.84;67.90;18789.66;5086484;27;20199;-65
2022/10/21 01:33:20;;;;;;;7.30;6.60;;;11.50;99.90;;;-141.84;67.33;18836.41;5113996;28;20203;-66
2022/10/21 01:35:55;;;;;;;7.73;6.43;;;11.50;99.90;;;-141.84;67.80;18822.19;5113613;28;20238;-67
2022/10/21 01:38:34;;;;;;;8.27;6.33;;;11.50;99.90;;;-141.84;67.95;18797.78;5114142;28;20194;-64
2022/10/21 01:41:13;;;;;;;6.40;5.80;;;11.50;99.90;;;-141.84;67.45;18824.22;5114324;28;20226;-65
2022/10/21 01:43:54;;;;;;;9.20;6.03;;;11.50;99.90;;;-141.84;67.50;18858.75;5113971;28;20246;-65
2022/10/21 01:46:30;;;;;;;7.33;6.50;;;11.60;99.90;;;-141.84;66.72;18895.31;5113555;28;20234;-66
2022/10/21 01:49:07;;;;;;;7.37;6.63;;;11.60;99.90;;;-141.84;67.10;18875.00;5113463;28;20577;-66
2022/10/21 01:51:37;;;;;;;6.43;5.37;;;11.70;99.90;;;-141.84;67.02;18881.09;5113347;28;20640;-65
2022/10/21 01:54:10;;;;;;;7.33;6.20;;;11.70;99.90;;;-141.84;67.33;18860.78;5113756;28;20220;-67
2022/10/21 01:56:42;;;;;;;6.50;5.80;;;11.70;99.90;;;-141.84;67.17;18870.94;5113755;27;20194;-68
2022/10/21 01:59:13;;;;;;;7.07;6.13;;;11.70;99.90;;;-141.84;67.47;18856.72;5113977;28;20183;-64
2022/10/21 02:01:43;;;;;;;7.80;6.33;;;11.70;99.90;;;-141.84;67.15;18866.88;5112977;28;20231;-67
2022/10/21 02:04:15;;;;;;;6.87;6.03;;;11.70;99.90;;;-141.84;67.03;18868.91;5113071;28;20235;-66
2022/10/21 02:06:44;;;;;;;7.33;6.00;;;11.60;99.90;;;-141.84;67.22;18862.81;5113020;28;20219;-66
2022/10/21 02:09:12;;;;;;;7.87;5.97;;;11.60;99.90;;;-141.84;66.83;18913.59;5113376;28;20248;-65
2022/10/21 02:11:45;;;;;;;6.90;6.20;;;11.70;99.90;;;-141.84;66.80;18931.91;5113255;28;20218;-66
2022/10/21 02:14:20;;;;;;;6.50;5.90;;;11.70;99.90;;;-141.84;66.17;18925.81;5113690;28;20245;-67
2022/10/21 02:16:52;;;;;;;8.30;6.20;;;11.70;99.90;;;-141.84;67.19;18875.00;5113307;28;20217;-66
2022/10/21 02:19:21;;;;;;;7.40;6.10;;;11.70;99.90;;;-141.84;67.34;18866.88;5112750;28;20227;-65
2022/10/21 02:21:54;;;;;;;6.43;5.80;;;11.70;99.90;;;-141.84;66.90;18877.03;5112974;28;20730;-65
2022/10/21 02:24:36;;;;;;;7.60;6.10;;;11.70;99.90;;;-141.84;66.30;18960.34;5112851;28;20219;-66
2022/10/21 02:27:05;;;;;;;7.23;6.53;;;11.80;99.90;;;-141.84;66.90;18899.38;5113130;28;20215;-66
2022/10/21 02:29:38;;;;;;;7.13;6.10;;;11.80;99.90;;;-141.84;67.06;18883.13;5113063;27;20245;-65
2022/10/21 02:32:25;;;;;;;7.07;6.13;;;11.80;99.90;;;-141.84;67.49;18840.47;5112885;28;20647;-67
2022/10/21 02:35:15;;;;;;;6.53;5.87;;;11.70;99.90;;;-141.84;67.82;18866.88;5112336;28;20203;-66
2022/10/21 02:37:52;;;;;;;6.47;5.47;;;11.80;99.90;;;-141.84;68.33;18820.16;5111845;28;20219;-65
2022/10/21 02:40:26;;;;;;;6.97;5.83;;;11.70;99.90;;;-141.84;68.44;18830.31;5112353;28;20230;-68
2022/10/21 02:42:59;;;;;;;8.47;6.37;;;11.70;99.90;;;-141.84;68.31;18842.50;5112559;28;20235;-67
2022/10/21 02:45:27;;;;;;;6.33;5.73;;;11.80;99.90;;;-141.84;68.26;18820.16;5112388;28;20625;-66
2022/10/21 02:47:56;;;;;;;6.47;5.87;;;11.80;99.90;;;-141.84;68.51;18809.97;5112367;27;20268;-67
2022/10/21 02:50:25;;;;;;;8.17;5.93;;;11.70;99.90;;;-141.84;68.52;18828.28;5112104;28;20218;-66
2022/10/21 02:52:53;;;;;;;7.13;6.37;;;11.70;99.90;;;-141.84;68.52;18838.44;5112839;28;20191;-65
2022/10/21 02:55:21;;;;;;;8.50;6.90;;;11.80;99.90;;;-141.84;68.83;18755.13;5112174;28;20288;-67
2022/10/21 02:57:49;;;;;;;7.73;6.20;;;11.70;99.90;;;-141.84;68.97;18805.91;5112465;28;20223;-64
2022/10/21 03:00:17;;;;;;;6.30;5.70;;;11.70;99.90;;;-141.84;69.04;18757.16;5112291;28;20730;-65
2022/10/21 03:02:45;;;;;;;8.70;6.50;;;11.80;99.90;;;-141.84;68.68;18822.19;5112121;28;20634;-66
2022/10/21 03:05:14;;;;;;;6.43;5.83;;;11.80;99.90;;;-141.84;68.99;18789.66;5112691;28;20204;-66
2022/10/21 03:07:43;;;;;;;6.20;5.60;;;11.80;99.90;;;-141.84;68.59;18807.94;5111819;28;20227;-66
2022/10/21 03:10:11;;;;;;;7.63;6.43;;;11.80;99.90;;;-141.84;68.69;18870.94;5112112;28;20276;-67
2022/10/21 03:12:39;;;;;;;7.90;5.57;;;11.90;99.90;;;-141.84;68.89;18783.56;5111870;28;20227;-66
2022/10/21 03:15:08;;;;;;;7.33;6.27;;;11.90;99.90;;;-141.84;68.53;18822.19;5111605;28;20223;-67
2022/10/21 03:17:36;;;;;;;7.63;6.50;;;11.90;99.90;;;-141.84;68.42;18828.28;5111769;28;20206;-65
2022/10/21 03:20:06;;;;;;;6.70;6.00;;;12.00;99.90;;;-141.84;68.62;18824.22;5112017;28;20662;-66
2022/10/21 03:22:34;;;;;;;6.73;6.03;;;12.00;99.90;;;-141.84;68.80;18805.91;5111651;28;20227;-65
2022/10/21 03:25:05;;;;;;;6.53;5.53;;;12.00;99.90;;;-141.84;69.03;18785.59;5108878;27;20231;-65
2022/10/21 03:27:33;;;;;;;8.10;6.20;;;12.00;99.90;;;-141.84;69.22;18820.16;5111706;27;20250;-64
2022/10/21 03:30:02;;;;;;;7.30;6.13;;;12.00;99.90;;;-141.84;69.45;18765.28;5111462;28;20579;-64
2022/10/21 03:32:30;;;;;;;6.68;6.07;;;12.00;99.90;;;-141.84;69.75;18775.44;5111809;28;20199;-63
2022/10/21 03:34:58;;;;;;;7.43;5.67;;;12.00;99.90;;;-141.84;69.71;18759.19;5108515;28;20698;-68
2022/10/21 03:37:26;;;;;;;5.90;5.30;;;12.00;99.90;;;-141.84;69.90;18755.13;5091135;28;20297;-65
2022/10/21 03:39:54;;;;;;;7.57;6.18;;;12.00;99.90;;;-141.84;69.96;18751.06;5090964;28;20224;-64
2022/10/21 03:42:23;;;;;;;8.23;5.90;;;12.00;99.90;;;-141.84;70.04;18734.81;5090802;28;20723;-63
2022/10/21 03:44:51;;;;;;;6.80;6.10;;;12.00;99.90;;;-141.84;69.55;18769.34;5098368;28;20343;-65
2022/10/21 03:47:19;;;;;;;7.03;5.80;;;12.10;99.90;;;-141.84;69.48;18787.63;5111492;28;20570;-64
2022/10/21 03:49:47;;;;;;;7.20;6.03;;;12.10;99.90;;;-141.84;69.70;18793.72;5110950;28;20222;-65
2022/10/21 03:52:15;;;;;;;7.07;5.50;;;12.10;99.90;;;-141.84;69.92;18749.03;5111202;28;20363;-65
2022/10/21 03:54:43;;;;;;;7.10;6.40;;;12.00;99.90;;;-141.84;70.19;18716.53;5111014;28;20226;-64
2022/10/21 03:57:11;;;;;;;6.23;5.57;;;12.00;99.90;;;-141.84;70.30;18734.81;5111419;28;20227;-66
2022/10/21 03:59:41;;;;;;;8.00;7.20;;;12.00;99.90;;;-141.84;70.20;18753.09;5111050;27;20211;-67
2022/10/21 04:02:09;;;;;;;8.30;6.23;;;12.00;99.90;;;-141.84;70.53;18681.97;5111567;28;20223;-64
2022/10/21 04:04:37;;;;;;;6.47;5.80;;;12.00;99.90;;;-141.84;70.66;18708.41;5110968;28;20231;-65
2022/10/21 04:07:05;;;;;;;6.55;5.80;;;12.00;99.90;;;-141.84;70.85;18712.47;5111217;28;20235;-65
2022/10/21 04:09:33;;;;;;;7.63;6.60;;;12.00;99.90;;;-141.84;70.87;18718.56;5110909;28;20223;-67
2022/10/21 04:12:01;;;;;;;9.02;5.55;;;12.00;99.90;;;-141.84;70.99;18720.59;5111025;28;20230;-66
2022/10/21 04:14:29;;;;;;;9.03;6.40;;;12.00;99.90;;;-141.84;70.38;18712.47;5110827;28;20216;-64
2022/10/21 04:16:58;;;;;;;6.43;5.37;;;12.00;99.90;;;-141.84;70.43;18716.53;5111558;28;20268;-64
2022/10/21 04:19:34;;;;;;;7.53;5.93;;;12.10;99.90;;;-141.84;70.59;18700.25;5110830;28;20227;-66
2022/10/21 04:22:02;;;;;;;6.97;6.10;;;12.10;99.90;;;-141.84;70.72;18688.06;5110787;28;20227;-66
2022/10/21 04:24:30;;;;;;;6.18;5.50;;;12.10;99.90;;;-141.84;70.90;18698.22;5110239;28;20230;-64
2022/10/21 04:26:58;;;;;;;7.57;5.50;;;12.10;99.90;;;-141.84;70.72;18706.38;5110672;28;20637;-67
2022/10/21 04:29:26;;;;;;;6.10;5.50;;;12.10;99.90;;;-141.84;70.72;18706.38;5110424;28;20199;-64
2022/10/21 04:31:54;;;;;;;6.97;5.97;;;12.10;99.90;;;-141.84;70.63;18704.31;5112794;28;20539;-65
2022/10/21 04:34:29;;;;;;;6.27;5.43;;;12.10;99.90;;;-141.84;70.46;18732.78;5110987;28;20222;-64
2022/10/21 04:36:57;;;;;;;7.38;6.35;;;12.20;99.90;;;-141.84;70.32;18716.53;5110753;28;20641;-65
2022/10/21 04:39:31;;;;;;;6.87;5.23;;;12.10;99.90;;;-141.84;70.27;18714.50;5110589;28;20234;-66
2022/10/21 04:41:59;;;;;;;7.40;6.05;;;12.20;99.90;;;-141.84;70.34;18722.63;5110831;28;20231;-65
2022/10/21 04:44:27;;;;;;;6.45;5.80;;;12.20;99.90;;;-141.84;70.43;18716.53;5110238;28;20199;-64
2022/10/21 04:46:55;;;;;;;6.53;5.57;;;12.20;99.90;;;-141.84;70.28;18749.03;5110780;28;20597;-64
2022/10/21 04:49:23;;;;;;;6.72;6.03;;;12.20;99.90;;;-141.84;69.93;18740.91;5110210;28;20246;-64
2022/10/21 04:51:52;;;;;;;6.95;6.32;;;12.20;99.90;;;-141.84;69.51;18734.81;5110687;28;20295;-64
2022/10/21 04:54:20;;;;;;;6.30;5.70;;;12.30;99.90;;;-141.84;68.78;18775.44;5100197;28;20232;-64
2022/10/21 04:56:48;;;;;;;8.63;6.20;;;12.30;99.90;;;-141.84;69.20;18771.38;5090047;28;20230;-65
2022/10/21 04:59:16;;;;;;;7.82;6.13;;;12.30;99.90;;;-141.84;69.21;18781.53;5090517;28;20687;-65
2022/10/21 05:01:44;;;;;;;7.20;6.50;;;12.30;99.90;;;-141.84;68.52;18818.09;5091290;28;20231;-65
2022/10/21 05:04:12;;;;;;;7.63;6.10;;;12.40;99.90;;;-141.84;68.59;18820.16;5094309;28;20239;-63
2022/10/21 05:06:40;;;;;;;8.20;6.47;;;12.50;99.90;;;-141.84;67.83;18814.03;5111482;28;20230;-64
2022/10/21 05:09:10;;;;;;;9.33;6.30;;;12.50;99.90;;;-141.84;67.54;18875.00;5114171;28;20223;-66
2022/10/21 05:11:38;;;;;;;7.38;6.60;;;12.60;99.90;;;-141.84;67.94;18850.63;5114425;28;20199;-64
2022/10/21 05:14:06;;;;;;;7.63;6.60;;;12.60;99.90;;;-141.84;69.01;18797.78;5114832;28;20211;-64
2022/10/21 05:16:34;;;;;;;6.70;6.07;;;12.60;99.90;;;-141.84;69.80;18734.81;5114091;28;20227;-65
2022/10/21 05:19:02;;;;;;;7.80;6.87;;;12.50;99.90;;;-141.84;71.71;18708.41;5114079;27;20234;-65
2022/10/21 05:21:30;;;;;;;8.53;6.43;;;12.40;99.90;;;-141.84;72.67;18686.03;5113887;28;20702;-65
2022/10/21 05:23:58;;;;;;;7.83;7.00;;;12.30;99.90;;;-141.84;73.34;18625.09;5113702;28;20318;-64
2022/10/21 05:26:29;;;;;;;7.73;6.57;;;12.20;99.90;;;-141.84;74.24;18594.63;5114001;28;20207;-65
2022/10/21 05:28:57;;;;;;;10.52;7.72;;;12.20;99.90;;;-141.84;74.70;18578.38;5114116;28;20195;-64
2022/10/21 05:31:26;;;;;;;9.07;7.93;;;12.10;99.90;;;-141.84;75.04;18582.44;5113971;28;20284;-64
2022/10/21 05:33:54;;;;;;;9.73;7.80;;;12.00;99.90;;;-141.84;75.63;18570.22;5114083;28;20223;-65
2022/10/21 05:36:22;;;;;;;9.40;8.40;;;12.00;99.90;;;-141.84;75.24;18596.66;5113722;28;20227;-65
2022/10/21 05:38:51;;;;;;;9.83;8.67;;;12.00;99.90;;;-141.84;75.09;18558.03;5113442;28;20219;-63
2022/10/21 05:41:20;;;;;;;9.17;8.27;;;11.90;99.90;;;-141.84;72.57;18612.91;5114233;28;20196;-64
2022/10/21 05:43:49;;;;;;;8.17;7.33;;;12.00;99.90;;;-141.84;72.13;18631.19;5113798;28;20231;-64
2022/10/21 05:46:17;;;;;;;8.27;7.37;;;12.10;99.90;;;-141.84;72.20;18635.25;5113351;28;20223;-64
2022/10/21 05:48:45;;;;;;;8.10;7.40;;;12.10;99.90;;;-141.84;71.92;18633.22;5113688;27;20223;-65
2022/10/21 05:51:24;;;;;;;8.87;7.77;;;12.10;99.90;;;-141.84;71.27;18663.69;5113653;28;20215;-63
2022/10/21 05:53:52;;;;;;;8.60;7.57;;;12.20;99.90;;;-141.84;71.57;18635.25;5113335;27;20276;-65
2022/10/21 05:56:21;;;;;;;11.00;7.47;;;12.20;99.90;;;-141.84;71.57;18625.09;5113886;28;20207;-65
2022/10/21 05:58:50;;;;;;;8.45;7.18;;;12.20;99.90;;;-141.84;69.29;18736.84;5113666;28;20624;-64
2022/10/21 06:01:18;;;;;;;7.63;6.77;;;12.30;99.90;;;-141.84;70.06;18677.91;5113110;28;20246;-64
2022/10/21 06:03:47;;;;;;;12.07;7.17;;;12.30;99.90;;;-141.84;70.05;18673.84;5113231;28;20238;-65
2022/10/21 06:06:15;;;;;;;12.07;7.82;;;12.30;99.90;;;-141.84;68.51;18734.81;5113126;28;20223;-64
2022/10/21 06:08:43;;;;;;;9.00;7.87;;;12.30;99.90;;;-141.84;68.13;18767.31;5112966;28;20231;-65
2022/10/21 06:11:14;;;;;;;9.17;7.70;;;12.40;99.90;;;-141.84;66.68;18846.56;5113628;28;20222;-64
2022/10/21 06:13:43;;;;;;;9.90;7.83;;;12.40;99.90;;;-141.84;67.19;18826.25;5112695;28;20219;-64
2022/10/21 06:16:14;;;;;;;9.38;7.72;;;12.50;99.90;;;-141.84;66.09;18911.56;5112579;28;20231;-64
2022/10/21 06:18:43;;;;;;;8.80;7.63;;;12.50;99.90;;;-141.84;65.29;18899.38;5113069;28;20234;-65
2022/10/21 06:21:11;;;;;;;9.37;7.97;;;12.60;99.90;;;-141.84;65.80;18944.09;5112813;28;20223;-64
2022/10/21 06:23:39;;;;;;;7.88;7.07;;;12.60;99.90;;;-141.84;66.29;18938.00;5112989;28;20565;-65
2022/10/21 06:26:11;;;;;;;8.50;7.70;;;12.60;99.90;;;-141.84;67.27;18842.50;5113065;28;20765;-65
2022/10/21 06:28:43;;;;;;;8.47;7.50;;;12.60;99.90;;;-141.84;67.29;18862.81;5112721;28;20223;-65
2022/10/21 06:31:16;;;;;;;9.53;7.50;;;12.60;99.90;;;-141.84;67.33;18868.91;5112455;28;20220;-64
2022/10/21 06:33:44;;;;;;;7.75;7.00;;;12.60;99.90;;;-141.84;67.13;18828.28;5112883;27;20215;-64
2022/10/21 06:36:12;;;;;;;8.20;7.20;;;12.50;99.90;;;-141.84;66.85;18893.28;5112269;28;20242;-65
2022/10/21 06:38:40;;;;;;;8.80;6.55;;;12.60;99.90;;;-141.84;66.35;18907.50;5112361;28;20195;-65
2022/10/21 06:41:12;;;;;;;8.60;7.70;;;12.60;99.90;;;-141.84;66.28;18907.50;5113009;27;20731;-65
2022/10/21 06:43:41;;;;;;;9.97;7.43;;;12.80;99.90;;;-141.84;64.92;18984.72;5112764;28;20334;-65
2022/10/21 06:46:13;;;;;;;8.40;7.53;;;12.70;99.90;;;-141.84;64.41;19033.50;5112280;28;20251;-64
2022/10/21 06:48:42;;;;;;;8.57;7.63;;;12.80;99.90;;;-141.84;64.59;19035.53;5112499;28;20767;-64
2022/10/21 06:51:15;;;;;;;9.45;7.47;;;12.80;99.90;;;-141.84;65.07;19015.19;5111914;28;20230;-65
2022/10/21 06:53:44;;;;;;;11.53;8.20;;;12.80;99.90;;;-141.84;63.66;19129.00;5108050;28;20224;-66
2022/10/21 06:56:16;;;;;;;8.80;7.65;;;13.00;99.90;;;-141.84;63.50;19147.28;5092757;28;20203;-65
2022/10/21 06:58:46;;;;;;;9.60;7.45;;;13.00;99.90;;;-141.84;64.50;19098.50;5091954;28;20246;-65
2022/10/21 07:01:19;;;;;;;9.27;7.27;;;13.00;99.90;;;-141.84;65.21;19039.59;5091773;28;20227;-64
2022/10/21 07:04:08;;;;;;;10.17;7.57;;;12.90;99.90;;;-141.84;65.37;19035.53;5091994;28;20235;-64
2022/10/21 07:06:36;;;;;;;7.90;7.10;;;12.90;99.90;;;-141.84;65.10;19045.69;5108471;28;20227;-65
2022/10/21 07:09:07;;;;;;;9.53;8.47;;;12.90;99.90;;;-141.84;64.71;19068.03;5112280;28;20276;-64
2022/10/21 07:11:35;;;;;;;10.20;9.15;;;12.90;99.90;;;-141.84;65.84;19041.63;5112087;27;20187;-64
2022/10/21 07:14:04;;;;;;;10.77;8.30;;;12.90;99.90;;;-141.84;65.82;19015.19;5112793;28;20210;-65
2022/10/21 07:16:37;;;;;;;8.20;7.35;;;12.90;99.90;;;-141.84;65.06;19063.97;5111878;28;20718;-65
2022/10/21 07:19:06;;;;;;;9.02;7.70;;;12.90;99.90;;;-141.84;65.76;19009.09;5111861;28;20223;-65
2022/10/21 07:21:34;;;;;;;8.32;7.43;;;12.80;99.90;;;-141.84;66.12;18984.72;5111170;27;20360;-64
2022/10/21 07:24:02;;;;;;;10.70;7.90;;;12.80;99.90;;;-141.84;65.44;19033.50;5110766;28;20227;-65
2022/10/21 07:26:33;;;;;;;8.68;7.78;;;12.80;99.90;;;-141.84;65.34;19072.09;5111534;27;20211;-65
2022/10/21 07:29:01;;;;;;;8.35;7.38;;;12.90;99.90;;;-141.84;65.51;19009.09;5112486;28;20188;-64
2022/10/21 07:31:36;;;;;;;10.27;8.20;;;12.90;99.90;;;-141.84;65.27;19033.50;5111530;28;20598;-65
2022/10/21 07:34:07;;;;;;;10.53;7.93;;;12.90;99.90;;;-141.84;65.43;19082.25;5111764;28;20222;-65
2022/10/21 07:36:39;;;;;;;10.73;7.93;;;13.00;99.90;;;-141.84;65.32;19057.88;5111230;28;20227;-64
2022/10/21 07:39:11;;;;;;;8.60;7.67;;;13.00;99.90;;;-141.84;65.53;19037.56;5111688;28;20219;-65
2022/10/21 07:41:42;;;;;;;10.77;7.82;;;13.00;99.90;;;-141.84;65.63;19019.28;5111280;28;20188;-65
2022/10/21 07:44:11;;;;;;;9.90;7.55;;;13.00;99.90;;;-141.84;65.37;19041.63;5111996;28;20203;-65
2022/10/21 07:46:43;;;;;;;8.80;7.20;;;13.10;99.90;;;-141.84;65.43;19053.81;5111100;28;20227;-65
2022/10/21 07:49:13;;;;;;;8.90;7.33;;;13.00;99.90;;;-141.84;65.28;19078.19;5111432;28;20718;-66
2022/10/21 07:51:44;;;;;;;9.40;8.40;;;13.10;99.90;;;-141.84;65.08;19094.44;5110656;28;20227;-66
2022/10/21 07:54:13;;;;;;;8.63;7.78;;;13.00;99.90;;;-141.84;65.55;19074.13;5111452;28;20219;-65
2022/10/21 07:56:43;;;;;;;8.53;7.70;;;13.10;99.90;;;-141.84;65.86;19033.50;5111292;27;20195;-66
2022/10/21 07:59:13;;;;;;;7.80;7.00;;;13.00;99.90;;;-141.84;66.02;19025.38;5111649;28;20186;-63
2022/10/21 08:01:44;;;;;;;9.77;7.23;;;13.00;99.90;;;-141.84;65.82;19029.44;5110879;28;20223;-65
2022/10/21 08:04:15;;;;;;;7.30;6.53;;;13.10;99.90;;;-141.84;66.42;19005.03;5111328;28;20227;-60
2022/10/21 08:06:44;;;;;;;8.63;6.68;;;13.00;99.90;;;-141.84;66.20;18982.69;5110722;28;20231;-60
2022/10/21 08:09:13;;;;;;;9.68;7.20;;;13.00;99.90;;;-141.84;66.12;19041.63;5110662;28;20219;-61
2022/10/21 08:11:42;;;;;;;7.30;6.60;;;13.10;99.90;;;-141.84;66.08;19011.13;5111164;28;20199;-60
2022/10/21 08:14:11;;;;;;;8.40;7.47;;;13.10;99.90;;;-141.84;66.36;19000.97;5111628;28;20365;-60
2022/10/21 08:16:42;;;;;;;7.72;6.78;;;13.10;99.90;;;-141.84;66.25;19037.56;5110714;28;20223;-61
2022/10/21 08:19:19;;;;;;;9.60;7.57;;;13.10;99.90;;;-141.84;65.22;19055.84;5110879;28;20313;-59
2022/10/21 08:21:47;;;;;;;7.63;6.82;;;13.10;99.90;;;-141.84;65.45;19076.16;5110732;28;20299;-62
2022/10/21 08:24:16;;;;;;;8.60;7.68;;;13.20;99.90;;;-141.84;65.12;19126.97;5110818;28;20231;-61
2022/10/21 08:26:44;;;;;;;11.18;7.80;;;13.30;99.90;;;-141.84;63.39;19208.25;5110673;28;20340;-60
2022/10/21 08:29:12;;;;;;;9.10;7.88;;;13.50;99.90;;;-141.84;64.09;19220.44;5111135;28;20568;-62
2022/10/21 08:31:41;;;;;;;8.55;7.60;;;13.50;99.90;;;-141.84;64.50;19165.56;5110603;28;20839;-59
2022/10/21 08:34:09;;;;;;;10.32;8.30;;;13.60;99.90;;;-141.84;63.78;19248.88;5110949;28;20526;-61
2022/10/21 08:36:38;;;;;;;10.30;8.57;;;13.50;99.90;;;-141.84;64.25;19200.13;5113404;27;20230;-61
2022/10/21 08:39:07;;;;;;;9.48;8.38;;;13.50;99.90;;;-141.84;64.07;19238.72;5114886;28;20230;-61
2022/10/21 08:42:02;;;;;;;11.05;7.78;;;13.50;99.90;;;-141.84;63.99;19210.28;5115208;28;20560;-61
2022/10/21 08:44:40;;;;;;;10.35;8.23;;;13.60;99.90;;;-141.84;63.31;19208.25;5114766;27;20211;-60
2022/10/21 08:47:20;;;;;;;8.25;7.45;;;13.60;99.90;;;-141.84;63.82;19257.00;5115319;28;20538;-62
2022/10/21 08:50:00;;;;;;;10.98;8.05;;;13.60;99.90;;;-141.84;62.63;19311.88;5114761;28;20207;-60
2022/10/21 08:52:39;;;;;;;10.68;8.13;;;13.70;99.90;;;-141.84;63.03;19301.72;5114768;28;20230;-61
2022/10/21 08:55:16;;;;;;;9.02;8.02;;;13.70;99.90;;;-141.84;63.02;19322.03;5098350;28;20628;-62
2022/10/21 08:57:44;;;;;;;9.93;8.40;;;13.70;99.90;;;-141.84;63.19;19342.34;5094330;28;20223;-62
2022/10/21 09:00:19;;;;;;;8.35;7.45;;;13.80;99.90;;;-141.84;62.88;19326.09;5094661;28;20293;-64
2022/10/21 09:03:07;;;;;;;10.15;8.40;;;13.80;99.90;;;-141.84;62.89;19342.34;5094511;28;20230;-63
2022/10/21 09:06:01;;;;;;;10.70;7.68;;;13.80;99.90;;;-141.84;62.54;19372.84;5102152;28;20255;-62
2022/10/21 09:08:41;;;;;;;8.60;7.55;;;13.90;99.90;;;-141.84;62.77;19366.75;5114520;28;20214;-60
2022/10/21 09:11:25;;;;;;;8.70;7.72;;;13.80;99.90;;;-141.84;62.67;19346.44;5115000;28;20603;-61
2022/10/21 09:14:36;;;;;;;8.50;7.55;;;13.90;99.90;;;-141.84;62.22;19415.50;5114447;28;20210;-61
2022/10/21 09:17:24;;;;;;;9.32;7.32;;;14.00;99.90;;;-141.84;62.55;19452.09;5087401;28;20225;-60
2022/10/21 09:20:09;;;;;;;7.45;6.70;;;14.10;99.90;;;-141.84;62.63;19435.84;5094144;28;20208;-61
2022/10/21 09:22:52;;;;;;;9.73;8.18;;;14.20;99.90;;;-141.84;61.64;19521.19;5093526;28;20232;-61
2022/10/21 09:25:31;;;;;;;9.10;7.47;;;14.40;99.90;;;-141.84;61.26;19547.59;5093442;28;20232;-61
2022/10/21 09:28:08;;;;;;;7.78;6.97;;;14.50;99.90;;;-141.84;61.30;19580.13;5093630;28;20244;-61
2022/10/21 09:30:38;;;;;;;9.18;7.75;;;14.60;99.90;;;-141.84;61.54;19574.03;5093573;28;20286;-62
2022/10/21 09:33:18;;;;;;;13.10;8.07;;;14.70;99.90;;;-141.84;61.50;19537.44;5093581;28;20657;-61
2022/10/21 09:35:53;;;;;;;10.52;8.07;;;14.70;99.90;;;-141.84;60.98;19630.94;5103293;28;20227;-61
2022/10/21 09:38:28;;;;;;;14.77;8.65;;;14.80;99.90;;;-141.84;59.93;19700.03;5113965;28;20187;-62
2022/10/21 09:41:02;;;;;;;8.57;7.50;;;14.90;99.90;;;-141.84;58.58;19748.81;5114165;28;20203;-62
2022/10/21 09:43:30;;;;;;;9.77;7.38;;;15.10;99.90;;;-141.84;58.56;19830.09;5113649;28;20230;-60
2022/10/21 09:45:59;;;;;;;10.50;7.65;;;15.50;99.90;;;-141.84;56.35;20037.41;5113261;28;20227;-60
2022/10/21 09:48:38;;;;;;;7.65;6.75;;;15.90;99.90;;;-141.84;55.02;20212.19;5112804;28;20234;-61
2022/10/21 09:51:32;;;;;;;8.90;7.22;;;16.50;99.90;;;-141.84;53.37;20387.00;5113114;27;20219;-61
2022/10/21 09:54:09;;;;;;;11.15;7.28;;;16.90;99.90;;;-141.84;53.51;20376.84;5113106;28;20611;-61
2022/10/21 09:56:45;;;;;;;7.70;6.88;;;16.90;99.90;;;-141.84;54.62;20305.69;5113709;28;20217;-61
2022/10/21 09:59:17;;;;;;;7.40;6.63;;;16.90;99.90;;;-141.84;55.57;20295.53;5113844;28;20210;-61
2022/10/21 10:01:47;;;;;;;8.10;7.30;;;16.70;99.90;;;-141.84;56.89;20179.69;5112894;28;20898;-60
2022/10/21 10:04:25;;;;;;;10.25;8.88;;;16.60;99.90;;;-141.84;57.29;20143.09;5113107;28;20219;-61
2022/10/21 10:06:55;;;;;;;8.55;7.75;;;16.40;99.90;;;-141.84;58.24;20078.06;5113258;27;20237;-62
2022/10/21 10:09:28;;;;;;;8.65;7.70;;;16.20;99.90;;;-141.84;58.68;20053.66;5113110;28;20227;-61
2022/10/21 10:12:01;;;;;;;10.45;8.18;;;16.10;99.90;;;-141.84;58.82;20021.16;5113178;27;20219;-61
2022/10/21 10:14:34;;;;;;;11.05;8.00;;;16.00;99.90;;;-141.84;59.66;20013.00;5112972;28;20199;-60
2022/10/21 10:17:32;;;;;;;10.18;8.75;;;16.00;99.90;;;-141.84;58.97;20035.38;5113416;28;20184;-61
2022/10/21 10:20:19;;;;;;;8.77;7.88;;;16.00;99.90;;;-141.84;58.92;20088.22;5112989;28;20196;-61
2022/10/21 10:23:16;;;;;;;11.95;7.90;;;16.10;99.90;;;-141.84;59.32;20069.94;5113194;28;20211;-60
2022/10/21 10:25:51;;;;;;;8.68;7.78;;;16.10;99.90;;;-141.84;59.34;20021.16;5112593;27;20611;-61
2022/10/21 10:28:25;;;;;;;10.13;8.00;;;16.10;99.90;;;-141.84;58.92;20067.88;5112765;28;20223;-61